createdAt,value
2018-11-03T00:00:43.313Z,0
2018-11-03T00:01:52.903Z,0
2018-11-03T00:03:02.780Z,0
2018-11-03T00:04:12.648Z,0
2018-11-03T00:05:22.498Z,0
2018-11-03T00:06:32.364Z,0
2018-11-03T00:07:42.509Z,0
2018-11-03T00:08:52.353Z,0
2018-11-03T00:10:02.227Z,0
2018-11-03T00:11:12.073Z,0
2018-11-03T00:12:22.258Z,0
2018-11-03T00:13:32.378Z,0
2018-11-03T00:14:42.513Z,0
2018-11-03T00:15:52.345Z,0
2018-11-03T00:17:01.907Z,0
2018-11-03T00:18:11.221Z,0
2018-11-03T00:19:21.084Z,0
2018-11-03T00:20:33.990Z,0
2018-11-03T00:21:44.586Z,0
2018-11-03T00:22:54.590Z,0
2018-11-03T00:24:03.892Z,0
2018-11-03T00:25:14.047Z,0
2018-11-03T00:26:23.348Z,0
2018-11-03T00:27:33.481Z,0
2018-11-03T00:28:43.309Z,0
2018-11-03T00:29:53.284Z,0
2018-11-03T00:31:03.126Z,0
2018-11-03T00:32:12.994Z,0
2018-11-03T00:33:22.824Z,0
2018-11-03T00:34:32.674Z,0
2018-11-03T00:35:42.777Z,0
2018-11-03T00:36:52.347Z,0
2018-11-03T00:38:01.927Z,0
2018-11-03T00:39:11.525Z,0
2018-11-03T00:40:21.465Z,0
2018-11-03T00:41:31.332Z,0
2018-11-03T00:42:41.257Z,0
2018-11-03T00:43:51.316Z,0
2018-11-03T00:45:01.755Z,0
2018-11-03T00:46:12.130Z,0
2018-11-03T00:47:22.395Z,0
2018-11-03T00:48:31.958Z,0
2018-11-03T00:49:41.582Z,0
2018-11-03T00:50:51.406Z,0
2018-11-03T00:52:02.141Z,0
2018-11-03T00:53:12.286Z,0
2018-11-03T00:54:22.126Z,0
2018-11-03T00:55:32.034Z,0
2018-11-03T00:56:42.168Z,0
2018-11-03T00:57:52.287Z,0
2018-11-03T00:59:01.850Z,0
2018-11-03T01:00:11.966Z,0
2018-11-03T01:01:21.795Z,0
2018-11-03T01:02:31.928Z,0
2018-11-03T01:03:42.062Z,0
2018-11-03T01:04:51.902Z,0
2018-11-03T01:06:01.750Z,0
2018-11-03T01:07:11.590Z,0
2018-11-03T01:08:22.251Z,0
2018-11-03T01:09:32.883Z,0
2018-11-03T01:10:43.229Z,0
2018-11-03T01:11:53.085Z,0
2018-11-03T01:13:04.558Z,0
2018-11-03T01:14:14.131Z,0
2018-11-03T01:15:23.710Z,0
2018-11-03T01:16:33.547Z,0
2018-11-03T01:17:43.375Z,0
2018-11-03T01:18:53.243Z,0
2018-11-03T01:20:03.355Z,0
2018-11-03T01:21:13.481Z,0
2018-11-03T01:22:23.578Z,0
2018-11-03T01:23:33.923Z,0
2018-11-03T01:24:44.253Z,0
2018-11-03T01:25:54.084Z,0
2018-11-03T01:27:04.189Z,0
2018-11-03T01:28:14.014Z,0
2018-11-03T01:29:24.136Z,0
2018-11-03T01:30:34.294Z,0
2018-11-03T01:31:45.156Z,0
2018-11-03T01:32:55.497Z,0
2018-11-03T01:34:05.343Z,0
2018-11-03T01:35:15.447Z,0
2018-11-03T01:36:24.997Z,0
2018-11-03T01:37:34.826Z,0
2018-11-03T01:38:44.389Z,0
2018-11-03T01:39:54.528Z,0
2018-11-03T01:41:04.156Z,0
2018-11-03T01:42:13.716Z,0
2018-11-03T01:43:23.280Z,0
2018-11-03T01:44:33.399Z,0
2018-11-03T01:45:43.227Z,0
2018-11-03T01:46:53.063Z,0
2018-11-03T01:48:05.580Z,0
2018-11-03T01:49:15.436Z,0
2018-11-03T01:50:25.286Z,0
2018-11-03T01:51:35.156Z,0
2018-11-03T01:52:45.503Z,0
2018-11-03T01:53:56.551Z,0
2018-11-03T01:55:06.964Z,0
2018-11-03T01:56:16.552Z,0
2018-11-03T01:57:26.641Z,0
2018-11-03T01:58:36.205Z,0
2018-11-03T01:59:46.346Z,0
2018-11-03T02:00:56.455Z,0
2018-11-03T02:02:06.654Z,0
2018-11-03T02:03:16.480Z,0
2018-11-03T02:04:26.584Z,0
2018-11-03T02:05:36.702Z,0
2018-11-03T02:06:46.278Z,0
2018-11-03T02:07:56.404Z,0
2018-11-03T02:09:06.247Z,0
2018-11-03T02:10:16.411Z,0
2018-11-03T02:11:26.504Z,0
2018-11-03T02:12:36.358Z,0
2018-11-03T02:13:46.189Z,0
2018-11-03T02:14:56.395Z,0
2018-11-03T02:16:07.107Z,0
2018-11-03T02:17:16.928Z,0
2018-11-03T02:18:26.769Z,0
2018-11-03T02:19:36.908Z,0
2018-11-03T02:20:46.999Z,0
2018-11-03T02:21:56.839Z,0
2018-11-03T02:23:07.072Z,0
2018-11-03T02:24:16.634Z,0
2018-11-03T02:25:26.463Z,0
2018-11-03T02:26:36.308Z,0
2018-11-03T02:27:46.504Z,0
2018-11-03T02:28:56.083Z,0
2018-11-03T02:30:07.367Z,0
2018-11-03T02:31:17.477Z,0
2018-11-03T02:32:27.296Z,0
2018-11-03T02:33:37.422Z,0
2018-11-03T02:34:47.530Z,0
2018-11-03T02:35:57.645Z,0
2018-11-03T02:37:08.202Z,0
2018-11-03T02:38:18.725Z,0
2018-11-03T02:39:29.076Z,0
2018-11-03T02:40:38.970Z,0
2018-11-03T02:41:49.049Z,0
2018-11-03T02:42:58.865Z,0
2018-11-03T02:44:08.948Z,0
2018-11-03T02:45:19.098Z,0
2018-11-03T02:46:29.219Z,0
2018-11-03T02:47:39.108Z,0
2018-11-03T02:48:49.203Z,0
2018-11-03T02:49:59.308Z,0
2018-11-03T02:51:09.453Z,0
2018-11-03T02:52:19.291Z,0
2018-11-03T02:53:29.427Z,0
2018-11-03T02:54:38.983Z,0
2018-11-03T02:55:48.290Z,0
2018-11-03T02:56:58.215Z,0
2018-11-03T02:58:08.054Z,0
2018-11-03T02:59:18.200Z,0
2018-11-03T03:00:28.866Z,0
2018-11-03T03:01:39.569Z,0
2018-11-03T03:02:49.655Z,0
2018-11-03T03:34:28.703Z,0
2018-11-03T03:35:38.550Z,0
2018-11-03T03:36:48.096Z,0
2018-11-03T03:37:57.970Z,0
2018-11-03T03:39:07.540Z,0
2018-11-03T03:40:17.741Z,0
2018-11-03T03:41:27.636Z,0
2018-11-03T03:42:37.196Z,0
2018-11-03T03:43:47.374Z,0
2018-11-03T03:44:59.429Z,0
2018-11-03T03:46:09.138Z,0
2018-11-03T03:47:19.290Z,0
2018-11-03T03:48:29.152Z,0
2018-11-03T03:49:38.986Z,0
2018-11-03T03:50:49.119Z,0
2018-11-03T03:51:58.934Z,0
2018-11-03T03:53:09.049Z,0
2018-11-03T03:54:18.894Z,0
2018-11-03T03:55:28.998Z,0
2018-11-03T03:56:39.100Z,0
2018-11-03T03:57:48.956Z,0
2018-11-03T03:58:58.542Z,0
2018-11-03T04:00:08.395Z,0
2018-11-03T04:01:18.564Z,0
2018-11-03T04:02:28.723Z,0
2018-11-03T04:03:38.626Z,0
2018-11-03T04:04:48.721Z,0
2018-11-03T04:05:58.838Z,0
2018-11-03T04:07:09.039Z,0
2018-11-03T04:08:19.488Z,0
2018-11-03T04:09:29.200Z,0
2018-11-03T04:10:39.039Z,0
2018-11-03T04:11:48.626Z,0
2018-11-03T04:12:58.470Z,0
2018-11-03T04:14:08.301Z,0
2018-11-03T04:15:18.192Z,0
2018-11-03T04:16:28.388Z,0
2018-11-03T04:17:38.486Z,0
2018-11-03T04:18:48.309Z,0
2018-11-03T04:19:57.879Z,0
2018-11-03T04:21:08.073Z,0
2018-11-03T04:22:18.179Z,0
2018-11-03T04:23:28.274Z,0
2018-11-03T04:24:38.101Z,0
2018-11-03T04:25:48.192Z,0
2018-11-03T04:26:57.753Z,0
2018-11-03T04:28:07.582Z,0
2018-11-03T04:29:17.704Z,0
2018-11-03T04:30:27.559Z,0
2018-11-03T04:31:36.862Z,0
2018-11-03T04:32:47.263Z,0
2018-11-03T04:33:57.858Z,0
2018-11-03T04:35:07.755Z,0
2018-11-03T04:36:18.070Z,0
2018-11-03T04:37:28.206Z,0
2018-11-03T04:38:38.402Z,0
2018-11-03T04:39:48.515Z,0
2018-11-03T04:40:58.659Z,0
2018-11-03T04:42:08.768Z,0
2018-11-03T04:43:18.872Z,0
2018-11-03T04:44:28.696Z,0
2018-11-03T04:45:39.389Z,0
2018-11-03T04:46:49.367Z,0
2018-11-03T04:47:59.522Z,0
2018-11-03T04:49:10.929Z,0
2018-11-03T04:50:21.077Z,0
2018-11-03T04:51:31.215Z,0
2018-11-03T04:52:41.081Z,0
2018-11-03T04:53:50.919Z,0
2018-11-03T04:55:00.588Z,0
2018-11-03T04:56:11.244Z,0
2018-11-03T04:57:21.589Z,0
2018-11-03T04:58:31.160Z,0
2018-11-03T04:59:41.259Z,0
2018-11-03T05:00:51.069Z,0
2018-11-03T05:02:00.631Z,0
2018-11-03T05:03:10.725Z,0
2018-11-03T05:04:20.919Z,0
2018-11-03T05:05:30.765Z,0
2018-11-03T05:06:40.878Z,0
2018-11-03T05:07:50.749Z,0
2018-11-03T05:09:02.926Z,0
2018-11-03T05:10:13.320Z,0
2018-11-03T05:11:22.946Z,0
2018-11-03T05:12:32.524Z,0
2018-11-03T05:13:42.874Z,0
2018-11-03T05:14:52.192Z,0
2018-11-03T05:16:02.298Z,0
2018-11-03T05:17:11.892Z,0
2018-11-03T05:18:21.449Z,0
2018-11-03T05:19:31.845Z,0
2018-11-03T05:20:41.588Z,0
2018-11-03T05:21:51.757Z,0
2018-11-03T05:23:01.606Z,0
2018-11-03T05:24:11.441Z,4
2018-11-03T05:25:21.594Z,4
2018-11-03T05:26:31.172Z,0
2018-11-03T05:27:41.295Z,0
2018-11-03T05:28:51.122Z,4
2018-11-03T05:30:01.447Z,4
2018-11-03T05:31:11.724Z,4
2018-11-03T05:32:21.801Z,4
2018-11-03T05:33:31.627Z,8
2018-11-03T05:34:41.775Z,12
2018-11-03T05:35:51.595Z,12
2018-11-03T05:37:01.682Z,16
2018-11-03T05:38:11.529Z,16
2018-11-03T05:39:21.354Z,16
2018-11-03T05:40:31.180Z,24
2018-11-03T05:41:41.031Z,28
2018-11-03T05:42:50.680Z,28
2018-11-03T05:44:00.614Z,28
2018-11-03T05:45:10.453Z,32
2018-11-03T05:46:20.508Z,36
2018-11-03T05:47:30.313Z,40
2018-11-03T05:48:40.160Z,48
2018-11-03T05:49:50.273Z,48
2018-11-03T05:50:59.585Z,56
2018-11-03T05:52:09.689Z,64
2018-11-03T05:53:19.842Z,64
2018-11-03T05:54:29.701Z,72
2018-11-03T05:55:38.999Z,76
2018-11-03T05:56:48.320Z,80
2018-11-03T05:57:58.419Z,92
2018-11-03T05:59:09.235Z,100
2018-11-03T06:00:19.368Z,104
2018-11-03T06:01:29.524Z,104
2018-11-03T06:02:39.131Z,104
2018-11-03T06:03:48.962Z,108
2018-11-03T06:04:59.792Z,116
2018-11-03T06:06:09.536Z,128
2018-11-03T06:07:19.749Z,140
2018-11-03T06:08:29.331Z,148
2018-11-03T06:09:39.173Z,160
2018-11-03T06:10:49.271Z,176
2018-11-03T06:11:58.866Z,188
2018-11-03T06:13:08.742Z,196
2018-11-03T06:14:18.565Z,196
2018-11-03T06:15:29.041Z,192
2018-11-03T06:16:38.282Z,176
2018-11-03T06:17:48.104Z,164
2018-11-03T06:18:57.923Z,160
2018-11-03T06:20:09.118Z,168
2018-11-03T06:21:19.215Z,192
2018-11-03T06:22:29.291Z,212
2018-11-03T06:23:39.628Z,220
2018-11-03T06:24:49.582Z,216
2018-11-03T06:25:59.416Z,212
2018-11-03T06:27:10.005Z,216
2018-11-03T06:28:20.975Z,220
2018-11-03T06:29:31.304Z,236
2018-11-03T06:30:41.433Z,260
2018-11-03T06:31:51.538Z,284
2018-11-03T06:33:01.716Z,304
2018-11-03T06:34:11.273Z,328
2018-11-03T06:35:21.835Z,360
2018-11-03T06:36:32.164Z,392
2018-11-03T06:37:42.003Z,392
2018-11-03T06:38:52.127Z,368
2018-11-03T06:40:02.041Z,360
2018-11-03T06:41:11.888Z,388
2018-11-03T06:42:21.712Z,396
2018-11-03T06:43:31.547Z,400
2018-11-03T06:44:41.412Z,392
2018-11-03T06:45:51.512Z,404
2018-11-03T06:47:01.346Z,396
2018-11-03T06:48:11.238Z,368
2018-11-03T06:49:21.720Z,340
2018-11-03T06:50:32.713Z,332
2018-11-03T06:51:42.795Z,328
2018-11-03T06:52:52.877Z,332
2018-11-03T06:54:03.027Z,348
2018-11-03T06:55:12.586Z,368
2018-11-03T06:56:22.415Z,392
2018-11-03T06:57:32.262Z,432
2018-11-03T06:58:42.435Z,452
2018-11-03T06:59:52.001Z,420
2018-11-03T07:01:01.848Z,344
2018-11-03T07:02:11.654Z,276
2018-11-03T07:03:21.503Z,244
2018-11-03T07:04:31.056Z,232
2018-11-03T07:05:40.895Z,236
2018-11-03T07:06:51.020Z,240
2018-11-03T07:08:01.128Z,248
2018-11-03T07:09:10.969Z,256
2018-11-03T07:10:20.826Z,264
2018-11-03T07:11:31.454Z,264
2018-11-03T07:12:43.851Z,264
2018-11-03T07:13:54.304Z,260
2018-11-03T07:15:05.788Z,256
2018-11-03T07:16:15.911Z,256
2018-11-03T07:17:25.946Z,260
2018-11-03T07:18:36.527Z,288
2018-11-03T07:19:46.687Z,376
2018-11-03T07:20:56.566Z,448
2018-11-03T07:22:06.739Z,492
2018-11-03T07:23:16.037Z,516
2018-11-03T07:24:25.631Z,536
2018-11-03T07:25:35.464Z,548
2018-11-03T07:26:45.362Z,628
2018-11-03T07:27:55.203Z,636
2018-11-03T07:29:05.225Z,616
2018-11-03T07:30:15.053Z,668
2018-11-03T07:31:24.884Z,692
2018-11-03T07:32:34.749Z,680
2018-11-03T07:33:44.607Z,700
2018-11-03T07:34:54.210Z,676
2018-11-03T07:36:04.391Z,648
2018-11-03T07:37:15.196Z,644
2018-11-03T07:38:26.052Z,656
2018-11-03T07:39:36.494Z,648
2018-11-03T07:40:46.850Z,600
2018-11-03T07:41:56.681Z,552
2018-11-03T07:43:06.505Z,512
2018-11-03T07:44:16.639Z,496
2018-11-03T07:45:26.792Z,500
2018-11-03T07:46:36.913Z,548
2018-11-03T07:47:47.041Z,624
2018-11-03T07:48:57.381Z,704
2018-11-03T07:50:07.883Z,748
2018-11-03T07:51:17.971Z,780
2018-11-03T07:52:28.099Z,820
2018-11-03T07:53:38.263Z,876
2018-11-03T07:54:48.257Z,968
2018-11-03T07:55:58.872Z,1060
2018-11-03T07:57:09.007Z,1124
2018-11-03T07:58:18.852Z,1148
2018-11-03T07:59:29.008Z,1144
2018-11-03T08:00:39.507Z,1148
2018-11-03T08:01:50.057Z,1236
2018-11-03T08:03:01.602Z,1368
2018-11-03T08:04:11.938Z,1520
2018-11-03T08:05:22.067Z,1600
2018-11-03T08:06:32.160Z,1616
2018-11-03T08:07:42.015Z,1552
2018-11-03T08:08:52.337Z,1476
2018-11-03T08:10:02.253Z,1320
2018-11-03T08:11:12.123Z,1184
2018-11-03T08:12:21.988Z,1304
2018-11-03T08:13:31.586Z,1500
2018-11-03T08:14:41.750Z,1624
2018-11-03T08:15:52.022Z,1744
2018-11-03T08:17:02.538Z,1816
2018-11-03T08:18:12.703Z,1836
2018-11-03T08:19:22.538Z,1788
2018-11-03T08:20:32.381Z,1632
2018-11-03T08:21:42.221Z,1476
2018-11-03T08:22:52.076Z,1380
2018-11-03T08:24:03.495Z,1332
2018-11-03T08:25:12.993Z,1376
2018-11-03T08:26:23.470Z,1464
2018-11-03T08:27:33.581Z,1500
2018-11-03T08:28:43.720Z,1484
2018-11-03T08:29:53.557Z,1432
2018-11-03T08:31:03.168Z,1396
2018-11-03T08:32:13.323Z,1436
2018-11-03T08:33:23.100Z,1472
2018-11-03T08:34:33.192Z,1576
2018-11-03T08:35:43.008Z,1688
2018-11-03T08:36:52.590Z,1764
2018-11-03T08:38:02.496Z,1824
2018-11-03T08:39:12.628Z,1888
2018-11-03T08:40:22.735Z,1972
2018-11-03T08:41:32.862Z,2004
2018-11-03T08:42:42.464Z,1960
2018-11-03T08:43:52.608Z,1952
2018-11-03T08:45:03.300Z,1980
2018-11-03T08:46:14.134Z,1988
2018-11-03T08:47:25.012Z,2012
2018-11-03T08:48:35.560Z,2044
2018-11-03T08:49:45.878Z,2080
2018-11-03T08:50:55.447Z,2092
2018-11-03T08:52:06.195Z,2060
2018-11-03T08:53:16.311Z,2052
2018-11-03T08:54:26.464Z,2060
2018-11-03T08:55:36.315Z,2020
2018-11-03T08:56:46.430Z,2000
2018-11-03T08:57:56.519Z,2040
2018-11-03T08:59:06.648Z,2076
2018-11-03T09:00:17.463Z,2096
2018-11-03T09:01:27.606Z,2156
2018-11-03T09:02:37.442Z,2256
2018-11-03T09:03:47.332Z,2308
2018-11-03T09:04:57.455Z,2320
2018-11-03T09:06:07.626Z,2376
2018-11-03T09:07:18.693Z,2484
2018-11-03T09:08:29.268Z,2552
2018-11-03T09:09:39.467Z,2552
2018-11-03T09:10:49.385Z,2512
2018-11-03T09:11:58.956Z,2472
2018-11-03T09:13:10.445Z,2500
2018-11-03T09:14:20.404Z,2600
2018-11-03T09:15:30.331Z,2696
2018-11-03T09:16:40.196Z,2768
2018-11-03T09:17:50.395Z,2812
2018-11-03T09:18:59.967Z,2804
2018-11-03T09:20:10.099Z,2788
2018-11-03T09:21:19.924Z,2780
2018-11-03T09:22:30.262Z,2828
2018-11-03T09:23:40.009Z,2916
2018-11-03T09:24:49.847Z,2984
2018-11-03T09:26:00.157Z,3004
2018-11-03T09:27:09.987Z,3048
2018-11-03T09:28:20.479Z,3116
2018-11-03T09:29:31.346Z,3168
2018-11-03T09:30:41.670Z,3160
2018-11-03T09:31:52.161Z,3144
2018-11-03T09:33:02.074Z,3168
2018-11-03T09:34:11.922Z,3212
2018-11-03T09:35:21.531Z,3148
2018-11-03T09:36:31.626Z,3032
2018-11-03T09:37:41.208Z,3040
2018-11-03T09:38:51.906Z,3100
2018-11-03T09:40:01.787Z,3024
2018-11-03T09:41:11.713Z,2956
2018-11-03T09:42:21.287Z,3036
2018-11-03T09:43:31.882Z,3292
2018-11-03T09:44:42.176Z,3512
2018-11-03T09:45:51.796Z,3604
2018-11-03T09:47:03.415Z,3672
2018-11-03T09:48:13.264Z,3996
2018-11-03T09:49:23.111Z,4280
2018-11-03T09:50:34.199Z,4160
2018-11-03T09:51:44.858Z,4000
2018-11-03T09:52:54.801Z,3840
2018-11-03T09:54:04.939Z,3668
2018-11-03T09:55:14.847Z,3704
2018-11-03T09:56:25.246Z,3672
2018-11-03T09:57:35.605Z,3644
2018-11-03T09:58:45.750Z,3624
2018-11-03T09:59:55.858Z,3588
2018-11-03T10:01:05.448Z,3556
2018-11-03T10:02:15.546Z,3444
2018-11-03T10:03:25.411Z,3488
2018-11-03T10:04:35.274Z,3652
2018-11-03T10:05:45.205Z,3796
2018-11-03T10:06:55.304Z,3840
2018-11-03T10:08:04.353Z,3744
2018-11-03T10:09:14.068Z,3676
2018-11-03T10:10:24.019Z,3584
2018-11-03T10:11:34.119Z,3564
2018-11-03T10:12:45.055Z,3452
2018-11-03T10:13:55.201Z,3404
2018-11-03T10:15:05.234Z,3408
2018-11-03T10:16:15.590Z,3412
2018-11-03T10:17:25.691Z,3420
2018-11-03T10:18:35.565Z,3500
2018-11-03T10:19:45.447Z,3500
2018-11-03T10:20:55.580Z,3436
2018-11-03T10:22:05.557Z,3412
2018-11-03T10:23:15.581Z,3480
2018-11-03T10:24:25.687Z,3520
2018-11-03T10:25:35.289Z,3476
2018-11-03T10:26:45.428Z,3292
2018-11-03T10:27:55.379Z,3224
2018-11-03T10:29:06.151Z,3104
2018-11-03T10:30:16.030Z,3004
2018-11-03T10:31:26.156Z,2868
2018-11-03T10:32:35.735Z,2772
2018-11-03T10:33:45.966Z,2660
2018-11-03T10:34:56.968Z,2652
2018-11-03T10:36:07.630Z,2692
2018-11-03T10:37:17.983Z,2664
2018-11-03T10:38:27.826Z,2636
2018-11-03T10:39:37.991Z,2676
2018-11-03T10:40:48.119Z,2708
2018-11-03T10:41:58.245Z,2704
2018-11-03T10:43:08.717Z,2700
2018-11-03T10:44:18.018Z,2640
2018-11-03T10:45:28.160Z,2548
2018-11-03T10:46:38.245Z,2336
2018-11-03T10:47:48.095Z,2024
2018-11-03T10:48:57.958Z,2100
2018-11-03T10:50:09.025Z,2280
2018-11-03T10:51:19.219Z,1892
2018-11-03T10:52:29.360Z,1536
2018-11-03T10:53:39.659Z,1556
2018-11-03T10:54:50.005Z,1540
2018-11-03T10:56:00.399Z,1532
2018-11-03T10:57:11.278Z,1560
2018-11-03T10:58:21.265Z,1652
2018-11-03T10:59:31.460Z,1852
2018-11-03T11:00:41.685Z,2140
2018-11-03T11:01:51.244Z,2408
2018-11-03T11:03:00.815Z,2700
2018-11-03T11:04:10.727Z,2864
2018-11-03T11:05:20.651Z,2820
2018-11-03T11:06:30.497Z,2640
2018-11-03T11:07:40.394Z,2400
2018-11-03T11:08:50.518Z,2208
2018-11-03T11:10:03.728Z,2008
2018-11-03T11:11:13.685Z,2224
2018-11-03T11:12:23.792Z,2196
2018-11-03T11:13:33.714Z,2324
2018-11-03T11:14:43.935Z,2304
2018-11-03T11:15:53.659Z,2432
2018-11-03T11:17:05.014Z,2448
2018-11-03T11:18:15.597Z,2480
2018-11-03T11:19:25.371Z,2388
2018-11-03T11:20:36.501Z,2472
2018-11-03T11:21:46.338Z,2444
2018-11-03T11:22:56.275Z,1880
2018-11-03T11:24:06.538Z,1500
2018-11-03T11:25:16.610Z,1368
2018-11-03T11:26:26.250Z,1368
2018-11-03T11:27:36.108Z,1540
2018-11-03T11:28:45.977Z,1860
2018-11-03T11:29:55.562Z,2448
2018-11-03T11:31:06.832Z,2560
2018-11-03T11:32:16.189Z,2600
2018-11-03T11:33:25.502Z,2580
2018-11-03T11:34:35.391Z,2412
2018-11-03T11:35:45.251Z,2100
2018-11-03T11:36:55.373Z,2024
2018-11-03T11:38:05.478Z,2072
2018-11-03T11:39:16.276Z,2152
2018-11-03T11:40:27.196Z,2300
2018-11-03T11:41:36.790Z,2356
2018-11-03T11:42:46.931Z,2384
2018-11-03T11:43:56.257Z,2524
2018-11-03T11:45:07.033Z,2692
2018-11-03T11:46:17.129Z,2780
2018-11-03T11:47:26.713Z,2968
2018-11-03T11:48:36.580Z,3152
2018-11-03T11:49:46.831Z,3120
2018-11-03T11:50:56.970Z,3112
2018-11-03T11:52:07.154Z,3092
2018-11-03T11:53:16.989Z,3052
2018-11-03T11:54:26.572Z,2932
2018-11-03T11:55:36.688Z,2896
2018-11-03T11:56:46.515Z,2852
2018-11-03T11:57:56.675Z,2696
2018-11-03T11:59:06.557Z,2540
2018-11-03T12:00:16.695Z,2576
2018-11-03T12:01:26.288Z,2480
2018-11-03T12:02:36.972Z,2456
2018-11-03T12:03:46.861Z,2460
2018-11-03T12:04:57.964Z,2452
2018-11-03T12:06:08.348Z,2348
2018-11-03T12:07:17.919Z,2412
2018-11-03T12:08:27.542Z,2524
2018-11-03T12:09:37.105Z,2636
2018-11-03T12:10:46.437Z,2732
2018-11-03T12:11:56.575Z,2784
2018-11-03T12:13:06.472Z,2800
2018-11-03T12:14:16.309Z,2664
2018-11-03T12:15:25.934Z,2452
2018-11-03T12:16:36.084Z,2512
2018-11-03T12:17:45.959Z,2600
2018-11-03T12:18:56.070Z,2648
2018-11-03T12:20:06.184Z,2656
2018-11-03T12:21:15.770Z,2604
2018-11-03T12:22:25.952Z,2496
2018-11-03T12:23:35.803Z,2408
2018-11-03T12:24:45.692Z,2396
2018-11-03T12:25:55.706Z,2376
2018-11-03T12:27:07.519Z,2396
2018-11-03T12:28:18.479Z,2432
2018-11-03T12:29:28.878Z,2464
2018-11-03T12:30:39.009Z,2424
2018-11-03T12:31:48.955Z,2320
2018-11-03T12:32:58.545Z,2216
2018-11-03T12:34:08.711Z,2232
2018-11-03T12:35:18.322Z,2240
2018-11-03T12:36:28.304Z,2236
2018-11-03T12:37:38.447Z,2192
2018-11-03T12:38:48.315Z,2204
2018-11-03T12:39:58.212Z,2268
2018-11-03T12:41:08.727Z,2284
2018-11-03T12:42:18.983Z,2304
2018-11-03T12:43:29.095Z,2316
2018-11-03T12:44:39.065Z,2356
2018-11-03T12:45:49.195Z,2424
2018-11-03T12:46:59.412Z,2436
2018-11-03T12:48:09.600Z,2376
2018-11-03T12:49:19.616Z,2312
2018-11-03T12:50:29.910Z,2248
2018-11-03T12:51:40.588Z,2204
2018-11-03T12:52:50.110Z,2160
2018-11-03T12:54:00.028Z,2100
2018-11-03T12:55:09.887Z,2032
2018-11-03T12:56:19.753Z,1776
2018-11-03T12:57:29.624Z,1312
2018-11-03T12:58:38.988Z,1108
2018-11-03T12:59:48.601Z,1044
2018-11-03T13:00:58.498Z,956
2018-11-03T13:02:08.823Z,984
2018-11-03T13:03:18.897Z,1064
2018-11-03T13:04:28.993Z,1164
2018-11-03T13:05:38.875Z,1304
2018-11-03T13:06:49.124Z,1436
2018-11-03T13:07:59.338Z,1508
2018-11-03T13:09:09.535Z,1496
2018-11-03T13:10:19.435Z,1468
2018-11-03T13:11:29.298Z,1468
2018-11-03T13:12:39.377Z,1516
2018-11-03T13:13:49.495Z,1552
2018-11-03T13:14:59.331Z,1580
2018-11-03T13:16:09.256Z,1624
2018-11-03T13:17:19.072Z,1628
2018-11-03T13:18:29.197Z,1588
2018-11-03T13:19:39.300Z,1532
2018-11-03T13:20:49.132Z,1336
2018-11-03T13:21:58.928Z,1200
2018-11-03T13:23:09.059Z,1116
2018-11-03T13:24:18.618Z,1092
2018-11-03T13:25:28.696Z,1140
2018-11-03T13:26:38.780Z,1220
2018-11-03T13:27:48.875Z,1144
2018-11-03T13:28:58.971Z,1124
2018-11-03T13:30:08.847Z,1116
2018-11-03T13:31:18.659Z,1108
2018-11-03T13:32:28.493Z,1096
2018-11-03T13:33:38.311Z,1076
2018-11-03T13:34:48.721Z,1048
2018-11-03T13:35:58.635Z,1060
2018-11-03T13:37:08.460Z,1060
2018-11-03T13:38:18.591Z,1044
2018-11-03T13:39:28.690Z,1024
2018-11-03T13:40:38.868Z,996
2018-11-03T13:41:48.769Z,960
2018-11-03T13:42:58.840Z,924
2018-11-03T13:44:09.003Z,904
2018-11-03T13:45:18.283Z,904
2018-11-03T13:46:28.141Z,912
2018-11-03T13:47:38.384Z,936
2018-11-03T13:48:47.900Z,936
2018-11-03T13:49:58.014Z,920
2018-11-03T13:51:07.841Z,920
2018-11-03T13:52:17.935Z,964
2018-11-03T13:53:27.767Z,1012
2018-11-03T13:54:37.592Z,1028
2018-11-03T13:55:47.696Z,1056
2018-11-03T13:56:57.856Z,1072
2018-11-03T13:58:08.129Z,1100
2018-11-03T13:59:17.965Z,1104
2018-11-03T14:00:27.792Z,1096
2018-11-03T14:01:37.876Z,1068
2018-11-03T14:02:47.980Z,1048
2018-11-03T14:03:58.117Z,1016
2018-11-03T14:05:09.076Z,976
2018-11-03T14:06:19.147Z,984
2018-11-03T14:07:29.239Z,1004
2018-11-03T14:08:39.326Z,1024
2018-11-03T14:09:49.131Z,1048
2018-11-03T14:10:59.064Z,1064
2018-11-03T14:12:10.344Z,1080
2018-11-03T14:13:20.434Z,1092
2018-11-03T14:14:30.255Z,1092
2018-11-03T14:15:40.546Z,1076
2018-11-03T14:16:50.727Z,1064
2018-11-03T14:18:00.583Z,1076
2018-11-03T14:19:10.186Z,1100
2018-11-03T14:20:20.307Z,1124
2018-11-03T14:21:30.413Z,1136
2018-11-03T14:22:40.008Z,1160
2018-11-03T14:23:49.882Z,1172
2018-11-03T14:24:59.971Z,1164
2018-11-03T14:26:09.801Z,1144
2018-11-03T14:27:19.640Z,1120
2018-11-03T14:28:29.212Z,1104
2018-11-03T14:29:39.367Z,1080
2018-11-03T14:30:49.256Z,1056
2018-11-03T14:31:58.868Z,1012
2018-11-03T14:33:08.623Z,972
2018-11-03T14:34:18.562Z,920
2018-11-03T14:35:28.648Z,864
2018-11-03T14:36:38.471Z,808
2018-11-03T14:37:48.538Z,756
2018-11-03T14:38:58.365Z,716
2018-11-03T14:40:08.472Z,688
2018-11-03T14:41:18.044Z,668
2018-11-03T14:42:27.382Z,644
2018-11-03T14:43:36.685Z,620
2018-11-03T14:44:46.879Z,600
2018-11-03T14:45:56.848Z,568
2018-11-03T14:47:06.744Z,532
2018-11-03T14:48:16.880Z,508
2018-11-03T14:49:26.755Z,500
2018-11-03T14:50:36.575Z,504
2018-11-03T14:51:46.134Z,504
2018-11-03T14:52:55.694Z,488
2018-11-03T14:54:05.785Z,472
2018-11-03T14:55:15.613Z,456
2018-11-03T14:56:25.431Z,448
2018-11-03T14:57:35.231Z,448
2018-11-03T14:58:45.067Z,432
2018-11-03T14:59:54.905Z,432
2018-11-03T15:01:05.095Z,424
2018-11-03T15:02:15.264Z,416
2018-11-03T15:03:25.369Z,396
2018-11-03T15:04:34.927Z,384
2018-11-03T15:05:44.771Z,372
2018-11-03T15:06:54.861Z,356
2018-11-03T15:08:07.055Z,340
2018-11-03T15:09:17.137Z,316
2018-11-03T15:10:26.942Z,284
2018-11-03T15:11:37.036Z,252
2018-11-03T15:12:46.876Z,224
2018-11-03T15:13:57.601Z,196
2018-11-03T15:15:07.785Z,172
2018-11-03T15:16:17.540Z,148
2018-11-03T15:17:27.618Z,132
2018-11-03T15:18:37.445Z,116
2018-11-03T15:19:47.394Z,104
2018-11-03T15:20:57.256Z,92
2018-11-03T15:22:07.354Z,88
2018-11-03T15:23:17.448Z,76
2018-11-03T15:24:27.563Z,72
2018-11-03T15:25:38.481Z,64
2018-11-03T15:26:48.585Z,60
2018-11-03T15:27:58.131Z,56
2018-11-03T15:29:09.916Z,56
2018-11-03T15:30:19.503Z,52
2018-11-03T15:31:29.623Z,48
2018-11-03T15:32:39.738Z,40
2018-11-03T15:33:49.818Z,36
2018-11-03T15:35:01.499Z,32
2018-11-03T15:36:11.455Z,28
2018-11-03T15:37:21.281Z,28
2018-11-03T15:38:31.097Z,24
2018-11-03T15:39:41.190Z,20
2018-11-03T15:40:51.019Z,16
2018-11-03T15:42:00.330Z,12
2018-11-03T15:43:10.195Z,12
2018-11-03T15:44:20.061Z,12
2018-11-03T15:45:29.882Z,12
2018-11-03T15:46:39.954Z,8
2018-11-03T15:47:49.952Z,8
2018-11-03T15:49:01.404Z,4
2018-11-03T15:50:10.995Z,4
2018-11-03T15:51:20.827Z,4
2018-11-03T15:52:30.630Z,4
2018-11-03T15:53:40.478Z,4
2018-11-03T15:54:50.303Z,0
2018-11-03T15:55:59.871Z,4
2018-11-03T15:57:09.175Z,4
2018-11-03T15:58:19.289Z,4
2018-11-03T15:59:29.358Z,0
2018-11-03T16:00:38.959Z,0
2018-11-03T16:01:48.782Z,0
2018-11-03T16:02:58.877Z,0
2018-11-03T16:04:08.696Z,0
2018-11-03T16:05:18.765Z,0
2018-11-03T16:06:28.054Z,0
2018-11-03T16:07:38.145Z,0
2018-11-03T16:08:47.985Z,0
2018-11-03T16:09:57.803Z,0
2018-11-03T16:11:09.600Z,0
2018-11-03T16:12:20.023Z,0
2018-11-03T16:13:30.198Z,0
2018-11-03T16:14:40.278Z,0
2018-11-03T16:15:50.432Z,0
2018-11-03T16:17:00.525Z,0
2018-11-03T16:18:10.379Z,0
2018-11-03T16:19:20.503Z,0
2018-11-03T16:20:30.623Z,0
2018-11-03T16:21:40.178Z,0
2018-11-03T16:22:50.554Z,0
2018-11-03T16:24:00.507Z,0
2018-11-03T16:25:10.610Z,0
2018-11-03T16:26:20.436Z,0
2018-11-03T16:27:29.993Z,0
2018-11-03T16:28:40.377Z,0
2018-11-03T16:29:50.639Z,0
2018-11-03T16:31:01.233Z,0
2018-11-03T16:32:11.778Z,0
2018-11-03T16:33:22.188Z,0
2018-11-03T16:34:32.295Z,0
2018-11-03T16:35:43.102Z,0
2018-11-03T16:36:53.044Z,0
2018-11-03T16:38:03.137Z,0
2018-11-03T16:39:13.249Z,0
2018-11-03T16:40:23.340Z,0
2018-11-03T16:41:33.492Z,0
2018-11-03T16:42:43.593Z,0
2018-11-03T16:43:53.662Z,0
2018-11-03T16:45:03.749Z,0
2018-11-03T16:46:13.297Z,0
2018-11-03T16:47:23.190Z,0
2018-11-03T16:48:33.291Z,0
2018-11-03T16:49:43.404Z,0